KAIK

Aiken Municipal Airport

Aiken, South Carolina, USA
METAR KAIK 162355Z AUTO 00000KT 10SM CLR 03/M02 A3030 RMK AO2
Observed Flight Rules
Dec-16 @ 23:55 UTC (24 minutes ago) Visual Flight Rules
Wind Visibility Clouds
Calm 10 miles
  • Clear skies
Temperatures Readings
Current 3°C / 37°F
Dewpoint -2°C / 28°F
Humidity 70%
Altimeter 30.3" Hg
Pressure 1026 hPa
Elevation 161
METAR KAIK 162355Z AUTO 00000KT 10SM CLR 03/M02 A3030 RMK AO2
Observed Flight Rules
Dec-16 @ 23:55 UTC
(24 minutes ago)
VFR
Wind Visibility
Calm 10 miles
Clouds
  • Clear skies
Temperature Dewpoint
3°C / 37°F -2°C / 28°F
Humidity Altimeter Pressure
70% 30.3" Hg 1026 hPa